Time;durP1;ratioP1;P1;durP2;ratioP2;P2;SDS_P1;SDS_P2;PMS_P1;PMS_P2;Temp;Humidity;BMP_temperature;BMP_pressure;BME280_temperature;BME280_humidity;BME280_pressure;Samples;Min_cycle;Max_cycle;Signal;HPM_P1;HPM_P2
2022/08/31 00:06:16;;;;;;;2.95;1.10;;;;;;;21.43;94.19;100579.75;4988878;28;20048;-63
2022/08/31 00:08:41;;;;;;;5.20;1.63;;;;;;;21.39;94.57;100578.56;4988866;28;20421;-65
2022/08/31 00:11:12;;;;;;;3.35;1.20;;;;;;;21.35;94.40;100574.72;4988492;28;20034;-66
2022/08/31 00:13:38;;;;;;;5.50;1.50;;;;;;;21.35;94.72;100585.31;4970911;28;20034;-70
2022/08/31 00:16:04;;;;;;;3.42;1.65;;;;;;;21.32;95.54;100577.78;4988484;28;20030;-68
2022/08/31 00:18:29;;;;;;;4.22;1.52;;;;;;;21.36;93.94;100568.38;4988353;28;20112;-65
2022/08/31 00:20:55;;;;;;;2.25;1.17;;;;;;;21.45;93.41;100569.75;4971026;28;20034;-64
2022/08/31 00:23:20;;;;;;;3.83;1.55;;;;;;;21.49;93.51;100572.81;4988722;28;20038;-64
2022/08/31 00:25:47;;;;;;;2.90;1.50;;;;;;;21.47;93.38;100567.72;4988527;28;20423;-65
2022/08/31 00:28:15;;;;;;;3.08;1.40;;;;;;;21.49;93.83;100567.50;4988434;28;20022;-66
2022/08/31 00:30:41;;;;;;;4.65;1.90;;;;;;;21.50;94.01;100567.28;4988278;28;20026;-66
2022/08/31 00:33:07;;;;;;;3.05;1.35;;;;;;;21.47;94.34;100562.41;4990642;28;20029;-69
2022/08/31 00:35:35;;;;;;;1.98;1.58;;;;;;;21.42;95.54;100564.06;4974436;28;20022;-69
2022/08/31 00:38:02;;;;;;;2.38;1.25;;;;;;;21.34;96.20;100562.47;4992165;28;20026;-64
2022/08/31 00:40:28;;;;;;;4.70;1.75;;;;;;;21.31;96.78;100562.09;4991817;28;20030;-67
2022/08/31 00:42:54;;;;;;;2.75;1.67;;;;;;;21.26;97.14;100557.47;4991950;28;20058;-68
2022/08/31 00:45:21;;;;;;;3.38;1.63;;;;;;;21.25;97.36;100550.53;4992166;28;20033;-66
2022/08/31 00:47:47;;;;;;;3.88;1.42;;;;;;;21.21;97.31;100559.94;4992216;28;20030;-66
2022/08/31 00:50:16;;;;;;;2.50;1.95;;;;;;;21.16;98.01;100557.88;4992235;28;20176;-68
2022/08/31 00:52:48;;;;;;;3.72;2.00;;;;;;;21.10;98.03;100555.25;4991807;28;20034;-66
2022/08/31 00:55:23;;;;;;;4.45;2.17;;;;;;;21.03;98.97;100555.28;4992035;28;20093;-64
2022/08/31 00:57:52;;;;;;;3.75;1.60;;;;;;;20.99;99.19;100553.25;4992072;28;20779;-67
2022/08/31 01:00:22;;;;;;;5.15;2.15;;;;;;;20.96;99.30;100559.78;4991788;28;20030;-69
2022/08/31 01:02:48;;;;;;;2.92;2.00;;;;;;;20.94;99.72;100547.78;4991846;28;20464;-67
2022/08/31 01:05:15;;;;;;;2.30;1.65;;;;;;;20.92;99.88;100550.63;4991719;28;20073;-67
2022/08/31 01:07:43;;;;;;;2.63;1.70;;;;;;;20.88;100.00;100547.59;4991536;28;20530;-69
2022/08/31 01:10:09;;;;;;;3.22;1.83;;;;;;;20.86;100.00;100544.34;4974080;28;20080;-65
2022/08/31 01:12:35;;;;;;;4.18;1.90;;;;;;;20.86;100.00;100543.53;4993892;28;20038;-66
2022/08/31 01:15:05;;;;;;;7.53;2.30;;;;;;;20.86;100.00;100547.00;4996266;28;20022;-65
2022/08/31 01:17:35;;;;;;;4.68;1.90;;;;;;;20.84;100.00;100546.38;4992422;28;20030;-68
2022/08/31 01:20:10;;;;;;;1.92;1.40;;;;;;;20.79;100.00;100548.88;4991183;28;20202;-67
2022/08/31 01:23:11;;;;;;;1.95;1.50;;;;;;;20.76;100.00;100549.28;4991454;28;20065;-67
2022/08/31 01:25:41;;;;;;;3.63;1.98;;;;;;;20.75;100.00;100555.59;4991322;28;20559;-68
2022/08/31 01:28:08;;;;;;;2.85;1.63;;;;;;;20.74;100.00;100551.34;4991484;28;20062;-64
2022/08/31 01:30:35;;;;;;;4.55;1.63;;;;;;;20.75;100.00;100554.78;4973785;28;20410;-65
2022/08/31 01:33:01;;;;;;;3.13;1.90;;;;;;;20.69;100.00;100553.78;4991302;28;20038;-67
2022/08/31 01:35:28;;;;;;;7.65;2.05;;;;;;;20.61;100.00;100554.00;4991323;28;20034;-66
2022/08/31 01:37:55;;;;;;;3.08;1.75;;;;;;;20.60;100.00;100549.75;4991156;28;20046;-70
2022/08/31 01:40:25;;;;;;;2.15;1.90;;;;;;;20.56;100.00;100553.81;4990923;28;20034;-65
2022/08/31 01:42:51;;;;;;;2.33;2.13;;;;;;;20.63;100.00;100549.31;4990534;28;20084;-69
2022/08/31 01:45:16;;;;;;;3.08;2.13;;;;;;;20.70;99.86;100546.66;4990441;28;20115;-65
2022/08/31 01:47:42;;;;;;;5.40;2.03;;;;;;;20.69;99.63;100547.69;4990927;28;20464;-68
2022/08/31 01:50:08;;;;;;;3.38;2.08;;;;;;;20.65;100.00;100546.47;4991164;28;20026;-67
2022/08/31 01:52:36;;;;;;;4.00;2.20;;;;;;;20.60;100.00;100544.44;4991021;28;20034;-68
2022/08/31 01:55:04;;;;;;;2.97;1.90;;;;;;;20.60;100.00;100539.16;4973192;28;20030;-64
2022/08/31 01:57:30;;;;;;;5.43;2.35;;;;;;;20.62;100.00;100541.59;4972851;28;20167;-65
2022/08/31 01:59:59;;;;;;;3.40;1.55;;;;;;;20.60;100.00;100523.28;4990678;28;20030;-68
2022/08/31 02:02:25;;;;;;;3.28;2.25;;;;;;;20.61;100.00;100524.91;4990557;28;20026;-65
2022/08/31 02:04:50;;;;;;;4.13;2.20;;;;;;;20.60;100.00;100523.28;4990642;28;20474;-66
2022/08/31 02:07:16;;;;;;;2.25;2.03;;;;;;;20.59;100.00;100531.41;4990830;28;20433;-63
2022/08/31 02:09:41;;;;;;;2.67;1.98;;;;;;;20.60;100.00;100523.28;4990818;28;20506;-66
2022/08/31 02:12:07;;;;;;;2.83;2.17;;;;;;;20.62;100.00;100525.72;4990450;28;20023;-66
2022/08/31 02:14:33;;;;;;;4.82;2.20;;;;;;;20.62;100.00;100521.22;4990666;28;20050;-65
2022/08/31 02:16:58;;;;;;;3.30;2.35;;;;;;;20.64;100.00;100518.38;4990421;28;20447;-68
2022/08/31 02:19:24;;;;;;;3.40;2.30;;;;;;;20.66;100.00;100524.28;4990580;28;20058;-65
2022/08/31 02:21:50;;;;;;;1.65;1.55;;;;;;;20.64;100.00;100529.78;4990319;28;20175;-65
2022/08/31 02:24:15;;;;;;;3.17;2.20;;;;;;;20.68;100.00;100536.28;4990035;28;20609;-67
2022/08/31 02:26:41;;;;;;;2.47;2.05;;;;;;;20.67;100.00;100532.00;4990152;28;20033;-64
2022/08/31 02:29:07;;;;;;;2.65;2.00;;;;;;;20.66;100.00;100529.56;4990529;28;20037;-69
2022/08/31 02:31:33;;;;;;;6.65;2.58;;;;;;;20.67;100.00;100529.34;4990029;28;20561;-66
2022/08/31 02:33:59;;;;;;;7.82;1.95;;;;;;;20.64;100.00;100524.47;4990131;28;20050;-66
2022/08/31 02:36:24;;;;;;;3.25;1.88;;;;;;;20.65;100.00;100527.94;4989926;28;20097;-66
2022/08/31 02:38:50;;;;;;;4.65;1.90;;;;;;;20.66;100.00;100526.91;4989845;28;20054;-69
2022/08/31 02:43:41;;;;;;;4.25;2.60;;;;;;;20.68;100.00;100533.63;4891718;22;20058;-69
2022/08/31 02:46:06;;;;;;;3.97;2.00;;;;;;;20.72;100.00;100537.50;5009574;28;20108;-69
2022/08/31 02:48:33;;;;;;;5.18;2.13;;;;;;;20.76;100.00;100529.94;5009127;28;20087;-64
2022/08/31 02:51:04;;;;;;;4.70;1.75;;;;;;;20.80;100.00;100541.72;5009632;28;20087;-69
2022/08/31 02:53:30;;;;;;;2.60;1.52;;;;;;;20.84;99.08;100538.44;5007935;28;20040;-65
2022/08/31 02:55:55;;;;;;;1.98;1.45;;;;;;;20.86;97.45;100548.81;5008534;28;20034;-69
2022/08/31 02:58:21;;;;;;;4.03;1.80;;;;;;;20.87;96.50;100551.25;5009735;28;20044;-65
2022/08/31 03:00:47;;;;;;;2.90;1.88;;;;;;;20.92;95.44;100547.19;5009397;28;20026;-65
2022/08/31 03:03:13;;;;;;;4.10;1.80;;;;;;;20.96;95.39;100548.38;5007958;28;20026;-68
2022/08/31 03:05:39;;;;;;;2.30;2.00;;;;;;;20.95;95.14;100541.47;5009019;28;20392;-68
2022/08/31 03:08:05;;;;;;;4.20;1.88;;;;;;;20.95;95.08;100546.75;5007522;28;20485;-65
2022/08/31 03:10:31;;;;;;;4.28;2.15;;;;;;;20.95;95.18;100552.88;5009168;28;20148;-67
2022/08/31 03:12:56;;;;;;;7.10;1.95;;;;;;;20.94;95.43;100555.72;5009116;28;20030;-65
2022/08/31 03:15:23;;;;;;;5.75;1.70;;;;;;;20.93;96.01;100554.09;5008809;28;20038;-67
2022/08/31 03:17:50;;;;;;;6.45;1.90;;;;;;;20.92;96.26;100560.41;5008902;28;20620;-63
2022/08/31 03:20:17;;;;;;;3.67;2.03;;;;;;;20.91;96.72;100564.09;5008962;28;20492;-66
2022/08/31 03:22:43;;;;;;;2.53;1.98;;;;;;;20.87;96.94;100561.84;5008938;28;20104;-66
2022/08/31 03:25:09;;;;;;;3.75;1.67;;;;;;;20.88;96.43;100560.84;5009049;28;20466;-65
2022/08/31 03:27:36;;;;;;;4.88;2.15;;;;;;;20.90;96.94;100557.97;5008835;28;20393;-66
2022/08/31 03:30:05;;;;;;;5.50;1.98;;;;;;;20.93;96.79;100554.09;5008456;28;20030;-67
2022/08/31 03:32:30;;;;;;;3.70;2.22;;;;;;;20.91;96.61;100556.16;5008780;28;20091;-65
2022/08/31 03:34:58;;;;;;;3.38;1.75;;;;;;;20.93;96.72;100549.63;5008799;28;20033;-67
2022/08/31 03:37:24;;;;;;;2.50;1.83;;;;;;;20.93;96.81;100544.31;5008625;28;20125;-68
2022/08/31 03:39:50;;;;;;;4.45;1.98;;;;;;;20.92;95.91;100552.47;5007131;28;20057;-66
2022/08/31 03:42:16;;;;;;;6.13;2.33;;;;;;;20.90;95.50;100550.03;5006931;28;20145;-65
2022/08/31 03:44:42;;;;;;;3.50;1.40;;;;;;;20.98;93.60;100547.16;5008127;28;20053;-63
2022/08/31 03:47:08;;;;;;;5.65;2.05;;;;;;;21.08;92.17;100552.81;5006911;28;20053;-66
2022/08/31 03:49:33;;;;;;;2.47;1.95;;;;;;;21.14;92.28;100551.16;4990699;28;20041;-67
2022/08/31 03:51:59;;;;;;;3.33;1.60;;;;;;;21.10;92.22;100550.78;5008584;28;20026;-64
2022/08/31 03:54:24;;;;;;;4.60;2.22;;;;;;;21.10;91.96;100548.13;5008234;28;20029;-65
2022/08/31 03:56:50;;;;;;;3.08;1.73;;;;;;;21.14;91.03;100551.97;5008523;28;20133;-70
2022/08/31 03:59:15;;;;;;;2.90;1.52;;;;;;;21.19;90.32;100544.22;5008001;28;20056;-70
2022/08/31 04:01:41;;;;;;;2.95;1.60;;;;;;;21.28;90.54;100543.97;5008270;28;20025;-67
2022/08/31 04:04:06;;;;;;;4.47;1.33;;;;;;;21.32;91.23;100551.28;5008247;28;20044;-67
2022/08/31 04:06:32;;;;;;;7.72;2.08;;;;;;;21.29;92.38;100554.34;5008798;28;20049;-66
2022/08/31 04:08:58;;;;;;;2.22;1.65;;;;;;;21.25;92.79;100558.47;5014517;28;20045;-66
2022/08/31 04:11:25;;;;;;;5.43;1.83;;;;;;;21.25;93.45;100562.97;5015055;28;20034;-68
2022/08/31 04:13:52;;;;;;;4.80;1.80;;;;;;;21.20;94.01;100560.91;5014612;28;20068;-68
2022/08/31 04:16:21;;;;;;;5.40;2.17;;;;;;;21.15;94.63;100561.56;5014874;28;20426;-68
2022/08/31 04:18:46;;;;;;;4.60;2.47;;;;;;;21.13;95.17;100562.78;5014682;28;20030;-70
2022/08/31 04:21:13;;;;;;;5.57;2.22;;;;;;;21.10;96.21;100563.19;5013271;28;20025;-69
2022/08/31 04:23:39;;;;;;;3.97;3.22;;;;;;;21.01;97.97;100567.91;5014860;28;20059;-63
2022/08/31 04:26:09;;;;;;;4.68;3.05;;;;;;;20.80;98.53;100569.00;5014662;28;20040;-67
2022/08/31 04:28:35;;;;;;;4.38;2.60;;;;;;;20.71;100.00;100572.94;5014466;28;20041;-66
2022/08/31 04:31:07;;;;;;;6.40;3.08;;;;;;;20.64;100.00;100580.06;5014772;28;20337;-69
2022/08/31 04:33:37;;;;;;;5.63;3.38;;;;;;;20.58;100.00;100582.72;5013255;28;20065;-65
2022/08/31 04:36:11;;;;;;;4.65;3.15;;;;;;;20.58;100.00;100580.91;5014676;28;20033;-66
2022/08/31 04:38:37;;;;;;;3.77;2.93;;;;;;;20.53;100.00;100586.00;5013019;28;20457;-68
2022/08/31 04:41:11;;;;;;;3.85;2.92;;;;;;;20.49;100.00;100595.38;5014274;28;20026;-67
2022/08/31 04:43:44;;;;;;;5.53;2.92;;;;;;;20.44;100.00;100592.50;5014255;28;20089;-63
2022/08/31 04:46:09;;;;;;;6.57;3.00;;;;;;;20.41;100.00;100585.00;5014696;28;20368;-66
2022/08/31 04:48:35;;;;;;;5.72;2.72;;;;;;;20.33;100.00;100582.50;5013003;28;20030;-66
2022/08/31 04:51:04;;;;;;;6.70;3.53;;;;;;;20.30;100.00;100572.38;5014557;28;20080;-65
2022/08/31 04:53:29;;;;;;;7.95;3.70;;;;;;;20.30;100.00;100569.72;5014163;28;20026;-67
2022/08/31 04:55:55;;;;;;;6.75;4.07;;;;;;;20.28;100.00;100571.75;5014661;28;20030;-68
2022/08/31 04:58:22;;;;;;;5.30;3.60;;;;;;;20.24;100.00;100566.06;5014653;28;20026;-67
2022/08/31 05:00:48;;;;;;;5.35;3.78;;;;;;;20.25;100.00;100564.25;5012876;28;20029;-64
2022/08/31 05:03:14;;;;;;;4.75;3.47;;;;;;;20.27;100.00;100565.66;5014352;28;20037;-65
2022/08/31 05:05:40;;;;;;;6.15;4.38;;;;;;;20.29;100.00;100557.53;5014316;28;20041;-63
2022/08/31 05:08:07;;;;;;;5.78;3.35;;;;;;;20.37;100.00;100570.50;5012507;28;20361;-64
2022/08/31 05:10:33;;;;;;;7.80;3.75;;;;;;;20.47;100.00;100563.00;5014276;28;20030;-66
2022/08/31 05:12:58;;;;;;;3.63;3.30;;;;;;;20.54;100.00;100567.25;5014163;28;20045;-67
2022/08/31 05:15:24;;;;;;;7.95;3.58;;;;;;;20.64;100.00;100561.53;5012953;28;20471;-65
2022/08/31 05:17:49;;;;;;;5.45;4.43;;;;;;;20.66;100.00;100564.78;5014394;28;20034;-65
2022/08/31 05:20:15;;;;;;;4.10;3.67;;;;;;;20.68;100.00;100562.75;5010115;28;20419;-65
2022/08/31 05:22:40;;;;;;;4.40;3.10;;;;;;;20.66;100.00;100564.78;5010551;28;20030;-67
2022/08/31 05:25:07;;;;;;;4.70;3.63;;;;;;;20.70;100.00;100573.13;5010945;28;20022;-65
2022/08/31 05:27:34;;;;;;;5.07;3.67;;;;;;;20.71;100.00;100588.81;5009125;28;20066;-65
2022/08/31 05:29:59;;;;;;;7.25;4.18;;;;;;;20.70;100.00;100581.88;5009293;28;20834;-67
2022/08/31 05:32:25;;;;;;;5.97;4.15;;;;;;;20.66;100.00;100582.50;5010505;28;20034;-68
2022/08/31 05:34:50;;;;;;;7.78;4.15;;;;;;;20.62;100.00;100590.06;5011103;28;20424;-63
2022/08/31 05:37:16;;;;;;;7.70;4.35;;;;;;;20.64;100.00;100582.72;5010276;28;20041;-65
2022/08/31 05:39:42;;;;;;;5.68;4.00;;;;;;;20.69;100.00;100582.09;5010416;28;20030;-67
2022/08/31 05:42:07;;;;;;;6.70;4.30;;;;;;;20.69;100.00;100585.56;5010465;28;20058;-65
2022/08/31 05:44:34;;;;;;;10.35;4.38;;;;;;;20.62;100.00;100583.94;5010459;28;20042;-64
2022/08/31 05:47:00;;;;;;;5.35;4.20;;;;;;;20.63;100.00;100594.31;5010717;28;20029;-66
2022/08/31 05:49:26;;;;;;;4.05;3.33;;;;;;;20.64;100.00;100582.72;5010680;28;20048;-65
2022/08/31 05:51:51;;;;;;;6.90;3.33;;;;;;;20.64;100.00;100587.19;5010397;28;20037;-67
2022/08/31 05:54:18;;;;;;;9.35;3.25;;;;;;;20.64;100.00;100589.84;5010670;28;20139;-65
2022/08/31 05:56:44;;;;;;;5.60;3.58;;;;;;;20.68;100.00;100585.75;5010336;28;20049;-65
2022/08/31 05:59:11;;;;;;;6.45;3.22;;;;;;;20.70;100.00;100575.78;5010192;28;20041;-64
2022/08/31 06:01:39;;;;;;;5.68;2.75;;;;;;;20.71;100.00;100588.81;5010108;28;20474;-64
2022/08/31 06:04:06;;;;;;;8.20;4.07;;;;;;;20.76;100.00;100582.91;5010083;28;20026;-63
2022/08/31 06:06:32;;;;;;;6.88;3.92;;;;;;;20.86;100.00;100585.91;5010415;28;20073;-66
2022/08/31 06:08:58;;;;;;;5.35;3.80;;;;;;;20.95;100.00;100589.13;5010079;28;20030;-65
2022/08/31 06:11:27;;;;;;;5.78;3.75;;;;;;;20.94;100.00;100579.56;5010178;28;20465;-65
2022/08/31 06:13:54;;;;;;;4.85;3.85;;;;;;;20.97;100.00;100584.44;5008365;28;20041;-66
2022/08/31 06:16:21;;;;;;;7.63;4.22;;;;;;;20.95;100.00;100583.84;5009854;28;20060;-67
2022/08/31 06:18:50;;;;;;;4.35;3.88;;;;;;;20.96;100.00;100580.16;5009835;28;20076;-66
2022/08/31 06:21:21;;;;;;;5.00;3.80;;;;;;;20.88;100.00;100583.84;5009485;28;20038;-64
2022/08/31 06:23:49;;;;;;;5.85;3.47;;;;;;;20.79;100.00;100587.78;5009547;28;20045;-65
2022/08/31 06:26:17;;;;;;;6.35;3.47;;;;;;;20.82;100.00;100588.16;5009741;28;20096;-65
2022/08/31 06:28:45;;;;;;;3.30;3.00;;;;;;;20.81;100.00;100583.06;5009692;28;20032;-65
2022/08/31 06:31:22;;;;;;;4.60;3.05;;;;;;;20.84;100.00;100587.94;5009529;28;20030;-64
2022/08/31 06:33:49;;;;;;;4.13;2.97;;;;;;;20.85;100.00;100587.72;5009628;28;20038;-66
2022/08/31 06:36:19;;;;;;;6.13;3.25;;;;;;;20.92;100.00;100586.91;5009628;28;20117;-67
2022/08/31 06:38:45;;;;;;;3.60;2.75;;;;;;;20.99;100.00;100595.63;5009560;28;20361;-66
2022/08/31 06:41:38;;;;;;;4.20;2.80;;;;;;;21.01;100.00;100593.59;5009974;28;20022;-66
2022/08/31 06:44:06;;;;;;;4.78;2.65;;;;;;;21.02;100.00;100592.56;5005309;28;20057;-66
2022/08/31 06:46:33;;;;;;;3.35;2.45;;;;;;;21.04;100.00;100593.19;5007953;28;20041;-66
2022/08/31 06:48:58;;;;;;;3.22;2.78;;;;;;;21.03;100.00;100591.56;5009210;28;20386;-65
2022/08/31 06:51:25;;;;;;;4.38;2.45;;;;;;;20.99;100.00;100588.50;5009486;28;20067;-65
2022/08/31 06:53:51;;;;;;;5.10;2.85;;;;;;;21.03;100.00;100596.84;5009086;28;20055;-66
2022/08/31 06:56:24;;;;;;;4.72;2.40;;;;;;;21.10;100.00;100595.00;5008917;28;20030;-64
2022/08/31 06:58:51;;;;;;;4.95;2.22;;;;;;;21.07;98.97;100593.56;5007569;28;20413;-66
2022/08/31 07:01:28;;;;;;;5.72;2.45;;;;;;;21.07;96.24;100596.22;5009089;28;20053;-65
2022/08/31 07:03:58;;;;;;;8.48;2.63;;;;;;;21.06;96.54;100599.06;5008771;28;20070;-66
2022/08/31 07:06:26;;;;;;;5.45;2.28;;;;;;;21.06;96.82;100599.91;5009188;28;20560;-64
2022/08/31 07:08:56;;;;;;;4.85;2.25;;;;;;;21.06;96.94;100599.91;5008726;28;20037;-65
2022/08/31 07:11:32;;;;;;;7.85;2.72;;;;;;;21.08;97.34;100595.19;5008693;28;20486;-64
2022/08/31 07:13:57;;;;;;;5.30;2.70;;;;;;;20.99;97.15;100598.28;4991537;28;20079;-66
2022/08/31 07:16:24;;;;;;;4.75;2.63;;;;;;;20.97;97.22;100602.97;5008702;28;20030;-64
2022/08/31 07:18:53;;;;;;;4.95;2.60;;;;;;;21.01;97.39;100605.00;5008868;28;20535;-65
2022/08/31 07:21:22;;;;;;;4.00;2.70;;;;;;;21.06;97.32;100602.53;5007190;28;20032;-65
2022/08/31 07:23:49;;;;;;;3.40;2.83;;;;;;;21.08;97.80;100602.34;5008787;28;20049;-63
2022/08/31 07:26:26;;;;;;;2.30;2.10;;;;;;;21.04;97.33;100609.06;5008587;28;20088;-63
2022/08/31 07:28:53;;;;;;;4.72;2.28;;;;;;;21.03;97.59;100610.91;5008703;28;20025;-65
2022/08/31 07:31:26;;;;;;;4.72;3.22;;;;;;;21.05;97.15;100608.88;5008917;28;20057;-64
2022/08/31 07:33:54;;;;;;;6.82;3.35;;;;;;;21.08;97.09;100608.44;5006995;28;20418;-63
2022/08/31 07:36:21;;;;;;;7.20;3.00;;;;;;;21.09;97.27;100615.38;5008777;28;20116;-65
2022/08/31 07:44:17;;;;;;;6.65;3.40;;;;;;;21.13;98.52;100621.06;5007264;28;20044;-65
2022/08/31 07:46:44;;;;;;;4.90;2.30;;;;;;;21.11;98.57;100625.75;5008489;28;20033;-65
2022/08/31 07:49:13;;;;;;;5.72;2.95;;;;;;;21.10;99.54;100624.13;5008312;28;20389;-63
2022/08/31 07:51:44;;;;;;;3.70;2.60;;;;;;;21.12;99.91;100628.19;5008074;28;20057;-63
2022/08/31 07:54:12;;;;;;;3.50;3.17;;;;;;;21.10;100.00;100634.72;5006724;28;20026;-62
2022/08/31 07:56:38;;;;;;;6.40;3.50;;;;;;;20.95;100.00;100626.22;5008064;28;20481;-61
2022/08/31 07:59:06;;;;;;;5.38;3.25;;;;;;;20.77;100.00;100627.69;5008138;28;20049;-62
2022/08/31 08:01:33;;;;;;;3.88;3.40;;;;;;;20.71;100.00;100633.00;5006599;28;20472;-61
2022/08/31 08:04:01;;;;;;;3.42;2.88;;;;;;;20.59;100.00;100627.53;5006748;28;20060;-62
2022/08/31 08:06:28;;;;;;;3.85;3.20;;;;;;;20.51;100.00;100631.19;5006572;28;20026;-62
2022/08/31 08:08:54;;;;;;;6.32;3.45;;;;;;;20.51;100.00;100633.84;5007991;28;20061;-61
2022/08/31 08:11:23;;;;;;;6.20;3.58;;;;;;;20.40;100.00;100631.81;5008074;28;20036;-62
2022/08/31 08:13:48;;;;;;;6.68;3.30;;;;;;;20.29;100.00;100631.59;5008638;28;20022;-62
2022/08/31 08:16:14;;;;;;;5.40;3.75;;;;;;;20.25;100.00;100633.03;5008092;28;20034;-62
2022/08/31 08:18:40;;;;;;;7.40;4.18;;;;;;;20.26;100.00;100643.41;5008103;28;20397;-62
2022/08/31 08:21:06;;;;;;;5.82;3.83;;;;;;;20.26;100.00;100645.22;5008341;28;20038;-62
2022/08/31 08:23:32;;;;;;;8.45;4.00;;;;;;;20.18;100.00;100643.59;5007934;28;20105;-62
2022/08/31 08:26:00;;;;;;;6.50;4.32;;;;;;;20.14;100.00;100648.47;5008025;28;20410;-63
2022/08/31 08:28:28;;;;;;;6.18;3.13;;;;;;;20.11;100.00;100648.06;5007849;28;20030;-63
2022/08/31 08:30:59;;;;;;;5.65;4.18;;;;;;;20.14;100.00;100651.13;5007795;28;20568;-62
2022/08/31 08:33:27;;;;;;;6.38;3.88;;;;;;;20.16;100.00;100643.81;5007800;28;20072;-62
2022/08/31 08:35:59;;;;;;;7.28;4.25;;;;;;;20.14;100.00;100637.91;5008115;28;20389;-62
2022/08/31 08:38:25;;;;;;;6.63;4.63;;;;;;;20.14;100.00;100643.19;5006243;28;20080;-63
2022/08/31 08:40:52;;;;;;;6.22;3.92;;;;;;;20.17;100.00;100644.63;5007644;28;20033;-62
2022/08/31 08:43:22;;;;;;;9.50;3.72;;;;;;;20.24;100.00;100634.84;5007525;28;20048;-62
2022/08/31 08:45:52;;;;;;;4.60;3.47;;;;;;;20.22;100.00;100631.59;5006239;28;20137;-62
2022/08/31 08:48:21;;;;;;;6.18;3.55;;;;;;;20.21;100.00;100632.63;5007815;28;20022;-63
2022/08/31 08:50:51;;;;;;;7.97;4.22;;;;;;;20.21;100.00;100628.13;5014161;28;20037;-62
2022/08/31 08:53:23;;;;;;;6.40;3.45;;;;;;;20.21;100.00;100627.31;5009613;28;20033;-63
2022/08/31 08:55:49;;;;;;;6.82;3.70;;;;;;;20.25;100.00;100631.19;5029973;28;20151;-62
2022/08/31 08:58:17;;;;;;;6.05;2.70;;;;;;;20.33;100.00;100630.97;5029622;28;20079;-62
2022/08/31 09:00:49;;;;;;;4.88;2.88;;;;;;;20.41;100.00;100640.56;5031037;28;20030;-62
2022/08/31 09:03:36;;;;;;;6.15;3.72;;;;;;;20.43;100.00;100631.41;5031066;28;20064;-62
2022/08/31 09:06:14;;;;;;;9.10;4.97;;;;;;;20.48;100.00;100644.03;5029614;28;20040;-62
2022/08/31 09:08:58;;;;;;;6.03;4.22;;;;;;;20.54;100.00;100640.56;5031340;28;20163;-62
2022/08/31 09:11:53;;;;;;;9.32;4.60;;;;;;;20.55;100.00;100642.19;5029617;28;20041;-62
2022/08/31 09:14:43;;;;;;;6.80;4.43;;;;;;;20.50;100.00;100634.84;5029619;28;20037;-62
2022/08/31 09:17:17;;;;;;;5.93;4.10;;;;;;;20.46;100.00;100632.81;5030741;28;20037;-62
2022/08/31 09:20:17;;;;;;;4.45;3.03;;;;;;;20.43;100.00;100635.88;5030660;28;20040;-62
2022/08/31 09:22:50;;;;;;;5.05;3.90;;;;;;;20.53;100.00;100633.63;5028634;28;20048;-63
2022/08/31 09:25:28;;;;;;;6.97;4.32;;;;;;;20.63;100.00;100634.03;5030635;28;20041;-62
2022/08/31 09:27:57;;;;;;;6.05;4.60;;;;;;;20.75;100.00;100626.28;5029000;28;20181;-62
2022/08/31 09:30:44;;;;;;;8.02;4.90;;;;;;;20.84;100.00;100636.41;5030620;28;20029;-62
2022/08/31 09:33:20;;;;;;;5.65;4.75;;;;;;;20.91;100.00;100644.34;5030644;28;20029;-63
2022/08/31 09:35:46;;;;;;;5.53;4.47;;;;;;;20.94;100.00;100645.78;5030342;28;20041;-62
2022/08/31 09:38:29;;;;;;;7.47;4.70;;;;;;;20.92;100.00;100637.22;5028977;28;20079;-62
2022/08/31 09:40:56;;;;;;;5.07;4.47;;;;;;;20.95;100.00;100634.97;5028813;28;20029;-62
2022/08/31 09:43:33;;;;;;;4.72;3.10;;;;;;;20.85;100.00;100621.34;5030001;28;20056;-62
2022/08/31 09:46:06;;;;;;;6.15;2.60;;;;;;;20.83;100.00;100621.56;5029025;28;20029;-62
2022/08/31 09:48:42;;;;;;;5.78;3.45;;;;;;;20.79;100.00;100627.50;5030395;28;20037;-62
2022/08/31 09:51:09;;;;;;;4.68;2.80;;;;;;;20.78;100.00;100626.69;5028800;28;20034;-63
2022/08/31 09:56:26;;;;;;;8.77;3.22;;;;;;;20.69;100.00;100619.97;5030498;28;20227;-63
2022/08/31 09:59:03;;;;;;;4.93;3.78;;;;;;;20.64;100.00;100613.66;5029916;28;20065;-62
2022/08/31 10:01:42;;;;;;;3.95;3.55;;;;;;;20.63;100.00;100620.78;5028655;28;20037;-62
2022/08/31 10:04:27;;;;;;;3.33;3.05;;;;;;;20.68;100.00;100620.19;5030002;28;20041;-62
2022/08/31 10:07:29;;;;;;;3.92;3.50;;;;;;;20.56;100.00;100620.00;5028352;28;20033;-62
2022/08/31 10:10:02;;;;;;;4.97;3.35;;;;;;;20.59;100.00;100614.28;5030050;28;20049;-62
2022/08/31 10:12:36;;;;;;;4.18;3.67;;;;;;;20.69;100.00;100617.31;5029658;28;20543;-62
2022/08/31 10:15:08;;;;;;;7.15;4.43;;;;;;;20.81;100.00;100615.66;5029877;28;20380;-62
2022/08/31 10:17:49;;;;;;;4.63;3.55;;;;;;;20.85;100.00;100616.84;5029273;28;20128;-62
2022/08/31 10:20:25;;;;;;;4.47;3.90;;;;;;;20.92;100.00;100618.69;5029521;28;20025;-62
2022/08/31 10:22:56;;;;;;;4.03;3.53;;;;;;;20.93;100.00;100618.47;5020367;28;20379;-63
2022/08/31 10:25:25;;;;;;;5.53;3.03;;;;;;;20.84;100.00;100620.53;5007754;28;20030;-62
2022/08/31 10:28:05;;;;;;;6.53;2.75;;;;;;;20.86;100.00;100622.97;5007834;28;20192;-63
2022/08/31 10:30:41;;;;;;;3.45;2.30;;;;;;;20.92;98.83;100619.50;5007689;28;20038;-63
2022/08/31 10:33:16;;;;;;;5.47;2.90;;;;;;;20.98;98.85;100613.38;5009419;28;20037;-64
2022/08/31 10:35:59;;;;;;;7.50;2.70;;;;;;;20.97;95.84;100608.28;5009730;28;20559;-63
2022/08/31 10:38:35;;;;;;;6.53;2.70;;;;;;;21.03;98.16;100607.44;5009865;28;20479;-62
2022/08/31 10:41:16;;;;;;;5.68;2.90;;;;;;;21.08;97.33;100604.97;5009716;28;20034;-62
2022/08/31 10:44:08;;;;;;;5.97;2.67;;;;;;;21.11;98.05;100612.50;5009080;28;20164;-63
2022/08/31 10:46:34;;;;;;;3.63;2.85;;;;;;;21.13;99.24;100615.75;5008158;28;20053;-63
2022/08/31 10:49:04;;;;;;;7.05;2.88;;;;;;;21.10;100.00;100613.53;5009759;28;20030;-62
2022/08/31 10:51:51;;;;;;;5.63;2.83;;;;;;;21.14;99.42;100620.03;5009715;28;20029;-63
2022/08/31 10:54:29;;;;;;;3.05;2.58;;;;;;;21.17;97.00;100614.31;5009629;28;20041;-62
2022/08/31 10:57:32;;;;;;;3.33;2.38;;;;;;;21.12;94.82;100611.50;5009667;28;20468;-63
2022/08/31 11:00:07;;;;;;;6.07;2.53;;;;;;;21.14;95.38;100606.78;5009245;28;20481;-63
2022/08/31 11:03:09;;;;;;;3.17;2.65;;;;;;;21.18;95.70;100600.06;5009517;28;20061;-62
2022/08/31 11:05:45;;;;;;;4.40;2.55;;;;;;;21.22;95.75;100590.69;5008685;28;20046;-63
2022/08/31 11:08:23;;;;;;;3.83;2.03;;;;;;;21.29;93.76;100585.34;5009233;28;20030;-62
2022/08/31 11:10:59;;;;;;;3.92;2.33;;;;;;;21.38;94.49;100589.38;5008970;28;20033;-63
2022/08/31 11:14:02;;;;;;;5.82;2.58;;;;;;;21.42;94.67;100585.28;5009037;28;20029;-64
2022/08/31 11:16:56;;;;;;;4.45;2.95;;;;;;;21.55;94.33;100592.34;5008172;28;20117;-66
2022/08/31 11:20:05;;;;;;;3.88;2.28;;;;;;;21.62;92.81;100590.47;5009370;28;20045;-63
2022/08/31 11:23:08;;;;;;;3.25;2.63;;;;;;;21.84;93.99;100584.59;4985622;28;20041;-63
2022/08/31 11:26:05;;;;;;;3.20;2.67;;;;;;;22.03;92.09;100582.03;5008708;28;20038;-64
2022/08/31 11:28:40;;;;;;;3.00;2.53;;;;;;;22.23;93.80;100576.53;5007341;28;20045;-62
2022/08/31 11:31:24;;;;;;;6.18;2.05;;;;;;;22.38;90.70;100575.19;5009013;28;20038;-64
2022/08/31 11:34:03;;;;;;;5.68;2.35;;;;;;;22.42;90.16;100571.06;5008675;28;20030;-64
2022/08/31 11:36:46;;;;;;;4.40;2.10;;;;;;;22.54;90.23;100570.34;5008959;28;20084;-64
2022/08/31 11:39:12;;;;;;;6.65;2.67;;;;;;;22.67;89.71;100568.34;5007258;28;20033;-64
2022/08/31 11:41:48;;;;;;;3.85;2.35;;;;;;;22.68;86.93;100564.66;5009034;28;20025;-63
2022/08/31 11:44:28;;;;;;;5.55;2.70;;;;;;;22.77;85.86;100563.31;5008427;28;20508;-65
2022/08/31 11:47:11;;;;;;;3.97;2.33;;;;;;;22.85;84.93;100554.28;5008566;28;20041;-64
2022/08/31 11:49:50;;;;;;;2.92;1.90;;;;;;;22.83;86.25;100557.16;5007108;28;20041;-64